Time;durP1;ratioP1;P1;durP2;ratioP2;P2;SDS_P1;SDS_P2;PMS_P1;PMS_P2;Temp;Humidity;BMP_temperature;BMP_pressure;BME280_temperature;BME280_humidity;BME280_pressure;Samples;Min_cycle;Max_cycle;Signal;HPM_P1;HPM_P2
2023/02/28 00:01:01;;;;;;;8.15;2.70;;;4.00;99.90;;;;;;5041577;28;20762;-63
2023/02/28 00:03:26;;;;;;;8.23;3.00;;;4.00;99.90;;;;;;5008480;28;20119;-63
2023/02/28 00:05:52;;;;;;;7.75;3.10;;;4.00;99.90;;;;;;5051933;28;20045;-63
2023/02/28 00:08:18;;;;;;;6.47;2.90;;;4.00;99.90;;;;;;5034018;28;20037;-63
2023/02/28 00:10:43;;;;;;;7.82;3.08;;;4.00;99.90;;;;;;5036940;28;20043;-63
2023/02/28 00:13:09;;;;;;;8.05;2.90;;;4.00;99.90;;;;;;5057545;28;20091;-63
2023/02/28 00:15:35;;;;;;;10.95;3.25;;;4.10;99.90;;;;;;5048104;28;20241;-63
2023/02/28 00:18:01;;;;;;;8.63;2.88;;;4.10;99.90;;;;;;5044136;28;20056;-63
2023/02/28 00:20:27;;;;;;;9.55;3.60;;;4.00;99.90;;;;;;5039939;28;20048;-63
2023/02/28 00:22:53;;;;;;;6.80;3.35;;;4.10;99.90;;;;;;5032364;28;20037;-63
2023/02/28 00:25:21;;;;;;;10.25;3.28;;;4.10;99.90;;;;;;5034164;28;20119;-63
2023/02/28 00:27:48;;;;;;;6.95;3.35;;;4.10;99.90;;;;;;5026576;28;20099;-63
2023/02/28 00:30:17;;;;;;;8.23;3.17;;;4.10;99.90;;;;;;5032980;28;20450;-63
2023/02/28 00:32:43;;;;;;;12.10;3.30;;;4.10;99.90;;;;;;5046153;28;20056;-63
2023/02/28 00:35:10;;;;;;;9.02;3.70;;;4.10;99.90;;;;;;5050069;28;20375;-63
2023/02/28 00:37:36;;;;;;;8.13;3.22;;;4.10;99.90;;;;;;5044248;28;20365;-63
2023/02/28 00:40:04;;;;;;;13.93;3.95;;;4.10;99.90;;;;;;5023177;28;20043;-63
2023/02/28 00:42:30;;;;;;;9.70;3.67;;;4.10;99.90;;;;;;5039502;28;20077;-63
2023/02/28 00:44:56;;;;;;;9.70;3.60;;;4.10;99.90;;;;;;5024881;28;20140;-62
2023/02/28 00:47:21;;;;;;;7.15;3.03;;;4.10;99.90;;;;;;5035006;28;20403;-62
2023/02/28 00:49:47;;;;;;;9.30;3.50;;;4.20;99.90;;;;;;5049738;28;20040;-63
2023/02/28 00:52:13;;;;;;;9.27;3.40;;;4.20;99.90;;;;;;5004758;28;20182;-63
2023/02/28 00:54:38;;;;;;;7.47;3.35;;;4.40;99.90;;;;;;5025330;28;20396;-63
2023/02/28 00:57:04;;;;;;;9.55;3.30;;;4.20;99.90;;;;;;5051321;28;20108;-63
2023/02/28 00:59:30;;;;;;;8.32;3.63;;;4.20;99.90;;;;;;5033537;28;20037;-63
2023/02/28 01:01:55;;;;;;;9.80;3.50;;;4.20;99.90;;;;;;5044949;28;20116;-63
2023/02/28 01:04:21;;;;;;;8.82;3.80;;;4.20;99.90;;;;;;5044829;28;20139;-63
2023/02/28 01:06:47;;;;;;;10.98;4.15;;;4.20;99.90;;;;;;5015497;28;20044;-63
2023/02/28 01:09:12;;;;;;;9.50;3.50;;;4.20;99.90;;;;;;5049638;28;20040;-63
2023/02/28 01:11:41;;;;;;;10.70;3.72;;;4.20;99.90;;;;;;5047123;28;20037;-63
2023/02/28 01:14:08;;;;;;;8.18;3.53;;;4.20;99.90;;;;;;5050898;28;20037;-64
2023/02/28 01:16:34;;;;;;;9.65;4.13;;;4.20;99.90;;;;;;5028095;28;20646;-63
2023/02/28 01:18:59;;;;;;;9.85;3.85;;;4.20;99.90;;;;;;5021350;28;20132;-63
2023/02/28 01:21:25;;;;;;;11.52;3.85;;;4.20;99.90;;;;;;5025947;28;20380;-63
2023/02/28 01:23:51;;;;;;;8.35;3.70;;;4.20;99.90;;;;;;5026750;28;20496;-63
2023/02/28 01:26:19;;;;;;;9.55;3.65;;;4.20;99.90;;;;;;5045037;28;20034;-63
2023/02/28 01:28:45;;;;;;;9.23;3.90;;;4.20;99.90;;;;;;5022725;28;20045;-63
2023/02/28 01:31:11;;;;;;;8.05;3.30;;;4.20;99.90;;;;;;5024041;28;20068;-63
2023/02/28 01:33:38;;;;;;;10.70;3.78;;;4.20;99.90;;;;;;5051094;28;20077;-63
2023/02/28 01:36:06;;;;;;;10.25;3.63;;;4.20;99.90;;;;;;5046177;28;20045;-63
2023/02/28 01:38:33;;;;;;;9.93;3.50;;;4.20;99.90;;;;;;5025686;28;20041;-63
2023/02/28 01:40:59;;;;;;;9.15;3.63;;;4.20;99.90;;;;;;5038736;28;20038;-63
2023/02/28 01:43:49;;;;;;;8.05;3.88;;;4.20;99.90;;;;;;5038349;28;20099;-63
2023/02/28 01:46:16;;;;;;;7.43;4.35;;;4.20;99.90;;;;;;4991285;28;20045;-63
2023/02/28 01:48:52;;;;;;;10.07;3.85;;;4.20;99.90;;;;;;5050765;28;20033;-62
2023/02/28 01:51:25;;;;;;;10.82;3.83;;;4.20;99.90;;;;;;5021589;28;20399;-63
2023/02/28 01:54:00;;;;;;;7.85;3.90;;;4.20;99.90;;;;;;5037874;28;20144;-63
2023/02/28 01:56:32;;;;;;;11.00;4.00;;;4.20;99.90;;;;;;5032429;28;20409;-63
2023/02/28 01:58:58;;;;;;;8.32;3.78;;;4.10;99.90;;;;;;5028745;28;20033;-63
2023/02/28 02:01:26;;;;;;;7.63;3.53;;;4.20;99.90;;;;;;5038252;28;20125;-63
2023/02/28 02:03:56;;;;;;;10.48;3.58;;;4.20;99.90;;;;;;5047696;28;20048;-63
2023/02/28 02:06:30;;;;;;;9.63;3.78;;;4.20;99.90;;;;;;5041689;28;20029;-63
2023/02/28 02:08:56;;;;;;;11.43;3.42;;;4.20;99.90;;;;;;5045886;28;20029;-63
2023/02/28 02:11:24;;;;;;;12.20;3.92;;;4.20;99.90;;;;;;5038879;28;20045;-63
2023/02/28 02:14:19;;;;;;;8.35;3.88;;;4.20;99.90;;;;;;5045156;28;20095;-63
2023/02/28 02:17:10;;;;;;;7.53;3.60;;;4.20;99.90;;;;;;5049872;28;20037;-63
2023/02/28 02:20:07;;;;;;;9.18;3.67;;;4.20;99.90;;;;;;5015763;28;20053;-63
2023/02/28 02:23:02;;;;;;;14.38;4.43;;;4.20;99.90;;;;;;5015635;28;20452;-63
2023/02/28 02:25:30;;;;;;;8.30;3.97;;;4.20;99.90;;;;;;5023091;28;20045;-62
2023/02/28 02:28:11;;;;;;;7.90;3.83;;;4.20;99.90;;;;;;5042837;28;20066;-63
2023/02/28 02:30:49;;;;;;;7.80;3.80;;;4.20;99.90;;;;;;5042191;28;20045;-63
2023/02/28 02:33:20;;;;;;;8.35;4.40;;;4.20;99.90;;;;;;5040725;28;20041;-63
2023/02/28 02:35:57;;;;;;;11.50;4.00;;;4.10;99.90;;;;;;5046415;28;20041;-62
2023/02/28 02:38:48;;;;;;;11.18;4.53;;;4.10;99.90;;;;;;5045155;28;20124;-63
2023/02/28 02:41:23;;;;;;;9.23;4.63;;;4.10;99.90;;;;;;5018026;28;20038;-63
2023/02/28 02:43:56;;;;;;;9.65;4.80;;;4.10;99.90;;;;;;5042051;28;20497;-62
2023/02/28 02:46:29;;;;;;;11.60;5.18;;;4.10;99.90;;;;;;5033965;28;20034;-63
2023/02/28 02:48:59;;;;;;;8.30;4.72;;;4.10;99.90;;;;;;5049372;28;20037;-62
2023/02/28 02:51:27;;;;;;;10.52;5.22;;;4.10;99.90;;;;;;5040199;28;20055;-62
2023/02/28 02:53:59;;;;;;;10.88;5.30;;;4.10;99.90;;;;;;5028498;28;20511;-62
2023/02/28 02:56:28;;;;;;;10.55;5.07;;;4.10;99.90;;;;;;5047821;28;20132;-63
2023/02/28 02:58:58;;;;;;;14.65;5.60;;;4.10;99.90;;;;;;5045680;28;20123;-63
2023/02/28 03:01:27;;;;;;;14.25;7.05;;;4.10;99.90;;;;;;5042074;28;20041;-63
2023/02/28 03:03:59;;;;;;;16.90;7.03;;;4.10;99.90;;;;;;5034615;28;20518;-63
2023/02/28 03:06:25;;;;;;;17.07;7.73;;;4.10;99.90;;;;;;5045209;28;20431;-63
2023/02/28 03:08:51;;;;;;;15.27;7.78;;;4.10;99.90;;;;;;5035898;28;20044;-63
2023/02/28 03:11:20;;;;;;;16.15;7.90;;;4.10;99.90;;;;;;5031586;28;20041;-63
2023/02/28 03:13:54;;;;;;;13.40;7.80;;;4.00;99.90;;;;;;5042539;28;20041;-63
2023/02/28 03:16:34;;;;;;;15.48;8.35;;;4.00;99.90;;;;;;5028137;28;20704;-63
2023/02/28 03:19:05;;;;;;;14.75;8.45;;;4.00;99.90;;;;;;5043190;28;20041;-64
2023/02/28 03:21:40;;;;;;;15.70;8.27;;;4.00;99.90;;;;;;5020531;28;20033;-64
2023/02/28 03:24:08;;;;;;;19.92;9.65;;;4.00;99.90;;;;;;5046175;28;20077;-63
2023/02/28 03:26:42;;;;;;;15.45;9.10;;;3.90;99.90;;;;;;5032700;28;20513;-63
2023/02/28 03:29:28;;;;;;;14.45;8.95;;;3.90;99.90;;;;;;5042431;28;20498;-63
2023/02/28 03:32:02;;;;;;;18.13;9.13;;;3.90;99.90;;;;;;5025830;28;20049;-63
2023/02/28 03:34:39;;;;;;;16.08;8.98;;;3.90;99.90;;;;;;5013098;28;20117;-63
2023/02/28 03:37:14;;;;;;;18.83;9.40;;;3.90;99.90;;;;;;5036349;28;20072;-63
2023/02/28 03:39:49;;;;;;;17.25;9.20;;;3.90;99.90;;;;;;5019621;28;20033;-63
2023/02/28 03:42:19;;;;;;;17.10;8.77;;;3.90;99.90;;;;;;5046054;28;20044;-63
2023/02/28 03:44:56;;;;;;;14.82;8.52;;;3.90;99.90;;;;;;5028570;28;20120;-63
2023/02/28 03:47:40;;;;;;;13.88;9.13;;;3.90;99.90;;;;;;5028965;28;20492;-63
2023/02/28 03:50:15;;;;;;;15.95;8.05;;;3.80;99.90;;;;;;5040372;28;20040;-63
2023/02/28 03:52:47;;;;;;;15.25;8.35;;;3.80;99.90;;;;;;5024438;28;20041;-64
2023/02/28 03:55:16;;;;;;;13.68;8.38;;;3.80;99.90;;;;;;5039676;28;20037;-63
2023/02/28 03:57:47;;;;;;;15.25;8.48;;;3.80;99.90;;;;;;5039076;28;20033;-64
2023/02/28 04:00:16;;;;;;;16.35;8.85;;;3.80;99.90;;;;;;5046659;28;20515;-63
2023/02/28 04:02:42;;;;;;;17.42;9.07;;;3.80;99.90;;;;;;5044130;28;20049;-63
2023/02/28 04:05:08;;;;;;;18.52;9.13;;;3.70;99.90;;;;;;5042753;28;20038;-64
2023/02/28 04:07:34;;;;;;;17.30;9.57;;;3.70;99.90;;;;;;5014223;28;20045;-64
2023/02/28 04:09:59;;;;;;;15.15;9.15;;;3.70;99.90;;;;;;5034466;28;20277;-64
2023/02/28 04:12:25;;;;;;;16.45;9.07;;;3.70;99.90;;;;;;5046722;28;20093;-63
2023/02/28 04:14:51;;;;;;;16.88;9.38;;;3.70;99.90;;;;;;5042330;28;20033;-63
2023/02/28 04:17:17;;;;;;;17.65;9.52;;;3.70;99.90;;;;;;5037582;28;20040;-63
2023/02/28 04:19:43;;;;;;;19.30;10.00;;;3.80;99.90;;;;;;5043844;28;20116;-64
2023/02/28 04:22:09;;;;;;;16.50;9.63;;;3.80;99.90;;;;;;5034447;28;20555;-63
2023/02/28 04:24:35;;;;;;;16.10;9.38;;;3.80;99.90;;;;;;5030744;28;20037;-64
2023/02/28 04:27:00;;;;;;;21.17;10.30;;;3.80;99.90;;;;;;5050969;28;20063;-64
2023/02/28 04:29:28;;;;;;;19.23;10.57;;;3.80;99.90;;;;;;5035735;28;20037;-64
2023/02/28 04:31:58;;;;;;;18.58;9.60;;;3.70;99.90;;;;;;5041216;28;20056;-64
2023/02/28 04:34:29;;;;;;;20.08;10.25;;;3.70;99.90;;;;;;5031606;28;20352;-64
2023/02/28 04:36:56;;;;;;;16.38;8.82;;;3.70;99.90;;;;;;5035559;28;20036;-64
2023/02/28 04:39:23;;;;;;;17.63;9.18;;;3.70;99.90;;;;;;5042957;28;20030;-64
2023/02/28 04:41:49;;;;;;;16.88;8.93;;;3.70;99.90;;;;;;5043056;28;20595;-63
2023/02/28 04:44:15;;;;;;;16.77;9.73;;;3.70;99.90;;;;;;5036105;28;20083;-64
2023/02/28 04:46:42;;;;;;;16.83;10.00;;;3.70;99.90;;;;;;5030471;28;20052;-64
2023/02/28 04:49:12;;;;;;;18.33;9.77;;;3.80;99.90;;;;;;5050561;28;20541;-64
2023/02/28 04:51:38;;;;;;;16.25;9.45;;;3.70;99.90;;;;;;5040200;28;20037;-64
2023/02/28 04:54:04;;;;;;;15.77;9.55;;;3.70;99.90;;;;;;5042471;28;20502;-64
2023/02/28 04:56:30;;;;;;;16.30;9.50;;;3.70;99.90;;;;;;5038536;28;20033;-64
2023/02/28 04:58:56;;;;;;;18.95;9.93;;;3.70;99.90;;;;;;5044374;28;20036;-64
2023/02/28 05:01:27;;;;;;;15.27;9.35;;;3.70;99.90;;;;;;5048462;28;20029;-64
2023/02/28 05:03:54;;;;;;;17.33;9.93;;;3.70;99.90;;;;;;5048578;28;20091;-64
2023/02/28 05:06:21;;;;;;;16.95;9.50;;;3.70;99.90;;;;;;5037853;28;20042;-64
2023/02/28 05:08:47;;;;;;;16.95;9.57;;;3.70;99.90;;;;;;5020786;28;20419;-63
2023/02/28 05:11:19;;;;;;;18.38;9.27;;;3.70;99.90;;;;;;5041032;28;20048;-64
2023/02/28 05:13:45;;;;;;;15.70;9.38;;;3.70;99.90;;;;;;5031443;28;20049;-64
2023/02/28 05:16:10;;;;;;;16.60;9.52;;;3.70;99.90;;;;;;5049331;28;20080;-64
2023/02/28 05:18:37;;;;;;;17.17;9.80;;;3.70;99.90;;;;;;5051259;28;20064;-64
2023/02/28 05:21:03;;;;;;;20.65;9.68;;;3.70;99.90;;;;;;5027155;28;20043;-64
2023/02/28 05:23:29;;;;;;;17.20;9.32;;;3.60;99.90;;;;;;5033163;28;20128;-64
2023/02/28 05:25:55;;;;;;;19.77;9.95;;;3.70;99.90;;;;;;5024486;28;20080;-63
2023/02/28 05:28:20;;;;;;;16.23;9.38;;;3.60;99.90;;;;;;5027234;28;20048;-64
2023/02/28 05:30:46;;;;;;;18.88;10.00;;;3.60;99.90;;;;;;5022573;28;20562;-63
2023/02/28 05:33:12;;;;;;;15.57;9.43;;;3.60;99.90;;;;;;5050494;28;20037;-64
2023/02/28 05:35:40;;;;;;;16.85;9.38;;;3.60;99.90;;;;;;5032591;28;20093;-64
2023/02/28 05:38:05;;;;;;;15.52;8.98;;;3.60;99.90;;;;;;5046809;28;20498;-63
2023/02/28 05:40:31;;;;;;;15.07;8.95;;;3.60;99.90;;;;;;5039159;28;20061;-63
2023/02/28 05:42:57;;;;;;;18.05;9.57;;;3.60;99.90;;;;;;5028815;28;20116;-63
2023/02/28 05:45:22;;;;;;;16.92;8.77;;;3.60;99.90;;;;;;5032281;28;20487;-64
2023/02/28 05:47:48;;;;;;;15.52;8.52;;;3.50;99.90;;;;;;5026814;28;20048;-63
2023/02/28 05:50:14;;;;;;;16.58;9.43;;;3.50;99.90;;;;;;5050597;28;20036;-63
2023/02/28 05:52:39;;;;;;;17.02;9.30;;;3.60;99.90;;;;;;5044927;28;20079;-64
2023/02/28 05:55:05;;;;;;;17.42;9.93;;;3.60;99.90;;;;;;5039188;28;20877;-63
2023/02/28 05:57:31;;;;;;;16.77;9.52;;;3.60;99.90;;;;;;5044432;28;20037;-63
2023/02/28 05:59:56;;;;;;;17.80;9.32;;;3.60;99.90;;;;;;5035980;28;20364;-63
2023/02/28 06:02:22;;;;;;;17.40;9.73;;;3.50;99.90;;;;;;5045484;28;20161;-64
2023/02/28 06:04:48;;;;;;;16.58;9.48;;;3.60;99.90;;;;;;5046130;28;20075;-63
2023/02/28 06:07:13;;;;;;;20.30;10.38;;;3.50;99.90;;;;;;5033594;28;20028;-64
2023/02/28 06:09:40;;;;;;;16.33;9.30;;;3.50;99.90;;;;;;5024281;28;20043;-63
2023/02/28 06:12:09;;;;;;;16.50;9.70;;;3.50;99.90;;;;;;5036539;28;20079;-63
2023/02/28 06:14:35;;;;;;;17.13;9.30;;;3.50;99.90;;;;;;5018315;28;20554;-63
2023/02/28 06:17:01;;;;;;;15.07;8.85;;;3.50;99.90;;;;;;5019647;28;20049;-63
2023/02/28 06:19:27;;;;;;;14.65;8.77;;;3.50;99.90;;;;;;5036014;28;20087;-63
2023/02/28 06:21:54;;;;;;;14.82;9.02;;;3.40;99.90;;;;;;5032368;28;20055;-63
2023/02/28 06:24:20;;;;;;;18.60;9.80;;;3.50;99.90;;;;;;5039978;28;20033;-64
2023/02/28 06:26:46;;;;;;;17.90;9.63;;;3.40;99.90;;;;;;5019650;28;20044;-63
2023/02/28 06:29:18;;;;;;;17.33;10.25;;;3.40;99.90;;;;;;5039803;28;20039;-64
2023/02/28 06:31:47;;;;;;;17.50;10.07;;;3.40;99.90;;;;;;5035952;28;20547;-63
2023/02/28 06:34:13;;;;;;;18.13;10.13;;;3.40;99.90;;;;;;5013817;28;20049;-63
2023/02/28 06:36:40;;;;;;;20.92;10.00;;;3.40;99.90;;;;;;5045842;28;20029;-63
2023/02/28 06:39:07;;;;;;;18.02;9.75;;;3.40;99.90;;;;;;5029241;28;20087;-63
2023/02/28 06:41:37;;;;;;;19.13;10.20;;;3.40;99.90;;;;;;5049320;28;20041;-63
2023/02/28 06:44:13;;;;;;;15.10;9.32;;;3.40;99.90;;;;;;5029151;28;20120;-63
2023/02/28 06:46:40;;;;;;;20.27;10.27;;;3.40;99.90;;;;;;5016242;28;20475;-63
2023/02/28 06:49:08;;;;;;;17.63;9.57;;;3.40;99.90;;;;;;5032935;28;20441;-63
2023/02/28 06:51:35;;;;;;;21.05;9.90;;;3.40;99.90;;;;;;5040929;28;20400;-63
2023/02/28 06:54:01;;;;;;;15.63;9.48;;;3.40;99.90;;;;;;5036840;28;20040;-63
2023/02/28 06:56:27;;;;;;;18.00;9.57;;;3.40;99.90;;;;;;5014919;28;20400;-63
2023/02/28 06:58:52;;;;;;;15.73;9.43;;;3.40;99.90;;;;;;5030605;28;20029;-63
2023/02/28 07:01:19;;;;;;;16.23;9.82;;;3.40;99.90;;;;;;5032104;28;20030;-64
2023/02/28 07:03:45;;;;;;;17.67;9.68;;;3.40;99.90;;;;;;5030501;28;20120;-64
2023/02/28 07:06:11;;;;;;;14.00;8.80;;;3.40;99.90;;;;;;5033372;28;20511;-63
2023/02/28 07:08:37;;;;;;;15.23;9.30;;;3.40;99.90;;;;;;5029598;28;20034;-63
2023/02/28 07:11:03;;;;;;;17.60;9.70;;;3.40;99.90;;;;;;5033425;28;20034;-64
2023/02/28 07:13:29;;;;;;;17.33;8.88;;;3.50;99.90;;;;;;5035509;28;20121;-64
2023/02/28 07:16:04;;;;;;;16.00;9.05;;;3.50;99.90;;;;;;5043469;28;20487;-64
2023/02/28 07:18:30;;;;;;;15.15;9.25;;;3.40;99.90;;;;;;5043567;28;20033;-64
2023/02/28 07:20:56;;;;;;;15.85;8.25;;;3.50;99.90;;;;;;5041328;28;20087;-63
2023/02/28 07:23:22;;;;;;;14.05;8.35;;;3.50;99.90;;;;;;5045932;28;20033;-64
2023/02/28 07:25:49;;;;;;;14.10;8.95;;;3.50;99.90;;;;;;5029858;28;20044;-63
2023/02/28 07:28:15;;;;;;;17.25;9.13;;;3.50;99.90;;;;;;5050493;28;20064;-63
2023/02/28 07:30:41;;;;;;;15.77;9.07;;;3.50;99.90;;;;;;5047790;28;20067;-63
2023/02/28 07:33:06;;;;;;;17.80;9.05;;;3.60;99.90;;;;;;5035112;28;20103;-64
2023/02/28 07:35:33;;;;;;;18.08;9.07;;;3.60;99.90;;;;;;5032781;28;20045;-64
2023/02/28 07:37:59;;;;;;;12.90;7.97;;;3.60;99.90;;;;;;5044552;28;20124;-64
2023/02/28 07:40:25;;;;;;;17.30;9.30;;;3.60;99.90;;;;;;5027145;28;20029;-63
2023/02/28 07:42:50;;;;;;;15.27;8.82;;;3.70;99.90;;;;;;5037752;28;20029;-64
2023/02/28 07:45:17;;;;;;;16.45;9.13;;;3.70;99.90;;;;;;5044838;28;20074;-64
2023/02/28 07:47:43;;;;;;;15.75;9.13;;;3.70;99.90;;;;;;5025797;28;20056;-63
2023/02/28 07:50:12;;;;;;;16.85;9.00;;;3.80;99.90;;;;;;5046033;28;20068;-64
2023/02/28 07:52:38;;;;;;;14.00;8.55;;;3.80;99.90;;;;;;5044583;28;20402;-64
2023/02/28 07:55:05;;;;;;;15.95;8.93;;;3.80;99.90;;;;;;5019747;28;20096;-64
2023/02/28 07:57:31;;;;;;;16.08;9.13;;;3.80;99.90;;;;;;5044049;28;20045;-64
2023/02/28 07:59:57;;;;;;;15.68;9.00;;;3.80;99.90;;;;;;5021966;28;20053;-64
2023/02/28 08:02:23;;;;;;;15.15;8.98;;;3.90;99.90;;;;;;5035243;28;20037;-64
2023/02/28 08:04:49;;;;;;;16.92;8.75;;;3.90;99.90;;;;;;5038582;28;20048;-63
2023/02/28 08:07:16;;;;;;;15.02;8.40;;;4.00;99.90;;;;;;5020116;28;20166;-64
2023/02/28 08:09:42;;;;;;;14.73;8.73;;;4.00;99.90;;;;;;5036284;28;20078;-64
2023/02/28 08:12:09;;;;;;;13.63;8.18;;;4.10;99.90;;;;;;5018899;28;20048;-64
2023/02/28 08:14:36;;;;;;;12.80;7.97;;;4.10;99.90;;;;;;5035970;28;20029;-64
2023/02/28 08:17:02;;;;;;;14.85;8.32;;;4.20;99.90;;;;;;5037231;28;20037;-64
2023/02/28 08:19:28;;;;;;;13.90;8.45;;;4.20;99.90;;;;;;5019918;28;20057;-64
2023/02/28 08:21:54;;;;;;;12.68;8.18;;;5.00;99.90;;;;;;5033864;28;20049;-64
2023/02/28 08:24:20;;;;;;;13.38;7.80;;;4.00;99.90;;;;;;5016177;28;20042;-63
2023/02/28 08:26:46;;;;;;;14.52;8.13;;;3.90;99.90;;;;;;5030965;28;20533;-63
2023/02/28 08:29:11;;;;;;;14.35;8.13;;;3.90;99.90;;;;;;5015484;28;20049;-63
2023/02/28 08:31:38;;;;;;;13.65;8.35;;;3.90;99.90;;;;;;5016285;28;20393;-64
2023/02/28 08:34:08;;;;;;;12.52;7.90;;;4.00;99.90;;;;;;5037212;28;20055;-64
2023/02/28 08:36:34;;;;;;;13.82;7.63;;;4.00;99.90;;;;;;5037092;28;20040;-63
2023/02/28 08:38:59;;;;;;;13.25;7.97;;;4.10;99.90;;;;;;5036477;28;20377;-64
2023/02/28 08:41:25;;;;;;;12.15;7.47;;;4.20;99.90;;;;;;5033189;28;20468;-63
2023/02/28 08:43:51;;;;;;;12.57;7.70;;;4.30;99.90;;;;;;5034988;28;20045;-63
2023/02/28 08:46:17;;;;;;;14.10;8.00;;;4.40;99.90;;;;;;5017443;28;20466;-64
2023/02/28 08:48:46;;;;;;;12.48;7.70;;;4.40;99.90;;;;;;5028065;28;20049;-64
2023/02/28 08:51:21;;;;;;;14.30;8.20;;;4.50;99.90;;;;;;5015056;28;20442;-64
2023/02/28 08:53:49;;;;;;;12.40;7.60;;;4.50;99.90;;;;;;5036778;28;20099;-64
2023/02/28 08:56:16;;;;;;;13.85;7.68;;;4.50;99.90;;;;;;5044848;28;20033;-64
2023/02/28 08:58:43;;;;;;;12.35;6.93;;;4.60;99.90;;;;;;5027690;28;20169;-64
2023/02/28 09:01:20;;;;;;;13.32;7.13;;;4.60;99.90;;;;;;5025538;28;20064;-64
2023/02/28 09:03:47;;;;;;;11.45;6.97;;;4.60;99.90;;;;;;5034439;28;20514;-64
2023/02/28 09:06:14;;;;;;;14.07;7.18;;;4.70;99.90;;;;;;5048267;28;20230;-64
2023/02/28 09:08:40;;;;;;;10.88;6.60;;;4.70;99.90;;;;;;5046793;28;20469;-63
2023/02/28 09:11:06;;;;;;;13.70;6.95;;;4.80;99.90;;;;;;5026022;28;20045;-63
2023/02/28 09:13:33;;;;;;;10.75;6.47;;;4.80;99.90;;;;;;5046144;28;20033;-63
2023/02/28 09:16:05;;;;;;;9.63;6.25;;;4.90;99.90;;;;;;5040949;28;20037;-63
2023/02/28 09:18:33;;;;;;;10.52;6.10;;;4.90;99.90;;;;;;5027127;28;20038;-63
2023/02/28 09:20:58;;;;;;;11.38;6.50;;;4.90;99.90;;;;;;5016800;28;20139;-63
2023/02/28 09:23:24;;;;;;;10.25;5.55;;;4.90;99.90;;;;;;5034321;28;20084;-63
2023/02/28 09:25:52;;;;;;;8.52;5.10;;;4.90;99.90;;;;;;5033536;28;20029;-63
2023/02/28 09:28:18;;;;;;;8.75;4.85;;;5.00;99.90;;;;;;5016084;28;20042;-63
2023/02/28 09:30:46;;;;;;;8.85;5.07;;;4.90;99.90;;;;;;5015498;28;20041;-63
2023/02/28 09:33:13;;;;;;;9.38;5.05;;;4.90;99.90;;;;;;5034567;28;20514;-64
2023/02/28 09:35:39;;;;;;;11.02;5.40;;;4.90;99.90;;;;;;5050332;28;20484;-64
2023/02/28 09:38:07;;;;;;;10.05;5.18;;;5.00;99.90;;;;;;5042556;28;20025;-64
2023/02/28 09:41:11;;;;;;;9.98;5.40;;;5.00;99.90;;;;;;5051352;28;20044;-63
2023/02/28 09:43:41;;;;;;;11.30;5.10;;;5.00;99.90;;;;;;4950795;29;20486;-64
2023/02/28 09:46:40;;;;;;;10.10;5.38;;;5.10;99.90;;;;;;5007144;28;20071;-64
2023/02/28 09:49:12;;;;;;;9.88;5.60;;;5.00;99.90;;;;;;5039977;28;20041;-64
2023/02/28 09:51:46;;;;;;;9.75;6.25;;;5.00;99.90;;;;;;5038085;28;20044;-64
2023/02/28 09:54:22;;;;;;;9.77;5.85;;;5.00;99.90;;;;;;5026121;28;20520;-64
2023/02/28 09:56:56;;;;;;;10.48;5.60;;;5.00;99.90;;;;;;5028542;28;20045;-63
2023/02/28 09:59:30;;;;;;;8.27;4.82;;;5.00;99.90;;;;;;5019507;28;20076;-64
2023/02/28 10:02:21;;;;;;;7.80;4.50;;;5.00;99.90;;;;;;5021894;28;20049;-63
2023/02/28 10:05:00;;;;;;;8.95;4.50;;;5.00;99.90;;;;;;5037226;28;20037;-63
2023/02/28 10:07:31;;;;;;;8.63;4.20;;;5.00;99.90;;;;;;5030106;28;20508;-63
2023/02/28 10:10:03;;;;;;;7.53;4.60;;;4.90;99.90;;;;;;5040424;28;20106;-63
2023/02/28 10:12:30;;;;;;;6.18;4.10;;;4.90;99.90;;;;;;5030436;28;20036;-63
2023/02/28 10:14:59;;;;;;;6.25;3.55;;;4.90;99.90;;;;;;5028782;28;20064;-64
2023/02/28 10:17:29;;;;;;;6.28;3.60;;;4.80;99.90;;;;;;5046098;28;20040;-63
2023/02/28 10:20:00;;;;;;;8.23;3.53;;;4.80;99.90;;;;;;5025041;28;20041;-63
2023/02/28 10:22:40;;;;;;;7.25;3.22;;;4.80;99.90;;;;;;5023092;28;20044;-63
2023/02/28 10:25:18;;;;;;;7.07;3.03;;;4.80;99.90;;;;;;5012530;28;20135;-63
2023/02/28 10:27:44;;;;;;;4.90;2.67;;;4.80;99.90;;;;;;5025731;28;20048;-63
2023/02/28 10:30:12;;;;;;;5.05;2.60;;;4.80;99.90;;;;;;5039998;28;20083;-63
2023/02/28 10:32:39;;;;;;;5.47;2.65;;;4.80;99.90;;;;;;5025280;28;20052;-63
2023/02/28 10:35:37;;;;;;;4.20;2.60;;;4.70;99.90;;;;;;5033837;28;20495;-63
2023/02/28 10:38:15;;;;;;;5.50;3.08;;;4.80;99.90;;;;;;5036695;28;20068;-63
2023/02/28 10:40:40;;;;;;;6.45;2.90;;;4.90;99.90;;;;;;5046426;28;20478;-63
2023/02/28 10:43:19;;;;;;;6.78;3.15;;;5.00;99.90;;;;;;5040546;28;20064;-63
2023/02/28 10:45:58;;;;;;;5.15;2.95;;;5.10;99.90;;;;;;5039173;28;20041;-63
2023/02/28 10:48:33;;;;;;;4.80;2.70;;;5.30;99.90;;;;;;5017795;28;21482;-66
2023/02/28 10:50:59;;;;;;;5.47;2.90;;;5.40;99.90;;;;;;5044483;28;20418;-63
2023/02/28 10:53:29;;;;;;;6.78;3.17;;;5.50;99.90;;;;;;5015217;28;20048;-63
2023/02/28 10:56:09;;;;;;;5.43;2.83;;;5.70;99.90;;;;;;5025141;28;20450;-63
2023/02/28 10:58:58;;;;;;;5.43;3.08;;;6.00;99.90;;;;;;5013909;28;20037;-63
2023/02/28 11:01:34;;;;;;;4.18;2.90;;;6.10;99.90;;;;;;5036377;28;20427;-63
2023/02/28 11:04:00;;;;;;;4.45;3.30;;;6.30;99.90;;;;;;5039876;28;20547;-63
2023/02/28 11:06:30;;;;;;;6.65;3.00;;;6.50;99.90;;;;;;5030647;28;20087;-63
2023/02/28 11:08:59;;;;;;;5.43;3.05;;;6.80;99.90;;;;;;5042390;28;20044;-63
2023/02/28 11:11:28;;;;;;;4.55;3.08;;;6.90;99.90;;;;;;5028344;28;20084;-63
2023/02/28 11:13:56;;;;;;;4.43;2.80;;;7.10;99.90;;;;;;5035858;28;20498;-64
2023/02/28 11:16:32;;;;;;;5.10;2.75;;;7.30;99.90;;;;;;5031233;28;20047;-65
2023/02/28 11:18:57;;;;;;;5.32;2.83;;;7.40;99.90;;;;;;5018310;28;20128;-65
2023/02/28 11:21:34;;;;;;;6.57;2.85;;;7.60;99.90;;;;;;5042029;28;20535;-63
2023/02/28 11:24:05;;;;;;;5.28;3.10;;;7.70;99.90;;;;;;5030574;28;20082;-65
2023/02/28 11:26:49;;;;;;;5.63;2.70;;;8.00;99.90;;;;;;5027469;28;20372;-63
2023/02/28 11:29:22;;;;;;;5.72;3.13;;;8.00;99.90;;;;;;5035520;28;20084;-63
2023/02/28 11:32:13;;;;;;;4.50;2.58;;;8.10;99.90;;;;;;5029433;28;20388;-63
2023/02/28 11:34:40;;;;;;;6.43;2.35;;;8.10;99.90;;;;;;5043365;28;20395;-63
2023/02/28 11:37:19;;;;;;;3.78;2.20;;;8.30;99.90;;;;;;5040940;28;20495;-62
2023/02/28 11:39:46;;;;;;;2.70;1.90;;;8.30;99.90;;;;;;5042505;28;20051;-65
2023/02/28 11:42:56;;;;;;;4.25;2.22;;;8.40;99.90;;;;;;5026031;28;20123;-63
2023/02/28 11:45:40;;;;;;;5.68;2.20;;;8.50;99.90;;;;;;5000869;28;20055;-63
2023/02/28 11:48:50;;;;;;;4.53;2.22;;;8.60;99.90;;;;;;5027702;28;20438;-63
2023/02/28 11:51:31;;;;;;;4.38;2.55;;;8.80;99.90;;;;;;5023624;28;20048;-63
2023/02/28 11:54:00;;;;;;;7.07;2.97;;;8.90;99.90;;;;;;5027363;28;20041;-70
2023/02/28 11:56:47;;;;;;;4.30;2.70;;;8.80;99.90;;;;;;5017408;28;20044;-63
2023/02/28 11:59:42;;;;;;;3.10;1.98;;;8.90;99.90;;;;;;5023809;28;20037;-64
2023/02/28 12:02:23;;;;;;;4.00;2.33;;;8.80;99.90;;;;;;5035316;28;20116;-63
2023/02/28 12:05:04;;;;;;;3.67;2.30;;;8.80;99.90;;;;;;5044491;28;20602;-63
2023/02/28 12:07:54;;;;;;;4.72;2.20;;;8.90;99.80;;;;;;5029671;28;20053;-63
2023/02/28 12:10:21;;;;;;;2.92;2.00;;;8.90;99.90;;;;;;5045574;28;20076;-63
2023/02/28 12:13:03;;;;;;;3.85;2.00;;;9.00;99.90;;;;;;5044827;28;20154;-62
2023/02/28 12:15:38;;;;;;;3.58;2.13;;;9.20;99.90;;;;;;5045144;28;20147;-63
2023/02/28 12:18:30;;;;;;;2.80;1.77;;;9.20;99.90;;;;;;5048475;28;20052;-64
2023/02/28 12:21:27;;;;;;;5.60;2.00;;;9.10;99.90;;;;;;5029811;28;20090;-66
2023/02/28 12:24:11;;;;;;;3.40;1.98;;;9.10;99.90;;;;;;5050654;28;20618;-63
2023/02/28 12:26:43;;;;;;;3.95;1.83;;;9.20;99.90;;;;;;5046775;28;20029;-63
2023/02/28 12:29:30;;;;;;;4.23;1.93;;;9.20;99.90;;;;;;5046383;28;20452;-63
2023/02/28 12:32:13;;;;;;;5.28;2.20;;;9.20;99.90;;;;;;5042930;28;20045;-64
2023/02/28 12:34:44;;;;;;;2.78;1.95;;;9.30;99.90;;;;;;5041773;28;20046;-65
2023/02/28 12:37:24;;;;;;;3.23;2.03;;;9.30;99.90;;;;;;5040955;28;20072;-62
2023/02/28 12:40:00;;;;;;;4.05;1.90;;;9.40;99.90;;;;;;5038091;28;20696;-64
2023/02/28 12:42:30;;;;;;;4.88;2.33;;;9.50;99.90;;;;;;5040167;28;20072;-63
2023/02/28 12:45:00;;;;;;;3.70;1.92;;;9.50;99.90;;;;;;5039936;28;20134;-63
2023/02/28 12:47:26;;;;;;;3.55;2.00;;;9.50;99.90;;;;;;5018655;28;20438;-63
2023/02/28 12:50:19;;;;;;;3.40;2.05;;;9.40;99.90;;;;;;5035474;28;20034;-62
2023/02/28 12:52:51;;;;;;;4.55;2.05;;;9.40;99.90;;;;;;5021408;28;20053;-63
2023/02/28 12:55:40;;;;;;;3.00;1.93;;;9.40;99.90;;;;;;5029395;28;20495;-63
2023/02/28 12:58:47;;;;;;;3.38;1.92;;;9.40;99.90;;;;;;5043686;28;20314;-63
2023/02/28 13:01:34;;;;;;;4.82;2.20;;;9.50;99.90;;;;;;5042631;28;20090;-63
2023/02/28 13:04:37;;;;;;;4.30;2.08;;;9.50;99.90;;;;;;5051188;28;20123;-62
2023/02/28 13:07:21;;;;;;;;;;;9.60;99.90;;;;;;5048728;28;20051;-62
2023/02/28 13:09:55;;;;;;;4.15;2.33;;;9.60;99.30;;;;;;5048012;28;20358;-62